Create Custom Reports and Graphics: Custom Report

Northern Napa County Map

Map

15 Minute Data

Southern Napa County Map

Map

15 Minute Data

Napa County - East

Latest Observations

15 Minute Data | America/Los_Angeles
as of 1/20/20 11:43 PM PST
Station Date Time Temp (°F) Dew Pt (°F) RH (%) Wind Dir (°) Wind Spd (mph) Wind Gust (mph) Latest Rain (In) Daily Rain (In) Daily Min Temp (°F) Daily Max Temp (°F)
Pope Valley - Weeks Lake 1/20/20 2300 38.2   0.8 36.9   0.7 95   0 NNE | 33 1.4   1.2 3.7   2.6 0.00   0.00 0.00   0.00 37.0   5.9 58.2   1.0
Dollarhide - STS 1/20/20 2300 45.3   3.9 41.9   2.5 88   5 SSW | 200 1.5   0.8 4.8   3.6 0.00   0.00 0.00   0.00 39.9   6.3 60.2   3.3
1AS Remote - STS 1/20/20 2300 39.5   1.2 38.8   0.9 97   1 ENE | 68 1.0   0.5 2.2   0.7 - - 37.3   6.6 59.6   3.3
17B Remote - STS 1/20/20 1600 57.6 40.5 53 - - - - - 45.7 60.2
18A Remote - STS 1/20/20 2300 38.4   0.3 37.9   0.4 98   0 - - - - - 36.2   6.0 59.1   2.0
Brown Estate-Lower Chiles Valley 1/20/20 2330 48.8   8.5 43.3   6.7 81   5 NNW | 331 3.9   2.9 12.6   9.6 0.00   0.00 0.00   0.00 38.6   5.6 58.4   1.9
Moss Creek Vineyard 1/20/20 2330 46.2   5.9 43.6   6.2 91   1 - - - 0.00   0.00 0.00   0.00 39.7   4.9 59.1   5.3
Max     48.8 43.6 98 - 3.9 12.6 0.00 0.00 39.9 60.2
Avg     42.7 40.4 92 - 1.9 5.8 0.00 - - -
Min     38.2 36.9 81 - 1.0 2.2 0.00 0.00 36.2 58.2

Napa County - Northern/Central

14 Stations

15 Minute Data | America/Los_Angeles
as of 1/20/20 11:43 PM PST
Station Date Time Temp (°F) RH (%) Dew Pt (°F) Wind Dir (°) Wind Spd (mph) Wind Gust (mph) Latest Rain (In) Daily Rain (In) Daily Min Temp (°F) Daily Max Temp (°F)
Calistoga 1/20/20 1700 54.7   1.6 65   8 43.2   4.9 - - - 0.00 0.00 42.3   7.9 56.6   4.7
St. Helena (TSH) 1/20/20 2200 39.5   5.8 94   18 38.0   0.4 NW | 323 1.4   0.8 2.4   2.4 0.00 0.00 39.2   3.8 56.1   3.8
Rutherford Hill - Estate 1/20/20 2300 46.3   0.2 90   21 43.4   6.9 ENE | 70 1.5   0.1 2.8   0.9 0.00 0.00 43.0   2.0 57.9   3.3
Mee Lane - MKV 1/20/20 2300 42.8   0.8 95   6 41.6   0.9 WNW | 300 0.9   0.3 3.1   0.4 0.00 0.00 41.8   3.9 58.2   3.2
Rutherford - STS 1/20/20 2300 42.6   0.5 98   4 42.0   0.6 S | 174 0.6   1.1 2.2   0.5 0.00 0.00 41.6   3.3 59.0   1.6
Skellenger 1/20/20 2000 45.0   4.2 86   21 41.0   3.0 N | 10 0.0   2.7 1.6   3.7 0.00 0.00 41.5   1.8 57.0   0.1
To Kalon 1/20/20 2300 41.5   1.7 97   7 40.6   0.3 SSE | 157 0.2   0.7 2.0   0.3 0.00 0.00 40.6   0.5 58.4   1.1
Wappo Hill 1/20/20 2300 42.1   0.3 99   4 41.9   1.5 S | 176 0.2   0.7 1.7   0.5 0.00 0.00 40.8   3.9 56.4   0.5
Stags Leap District - Chimney Rock 1/20/20 2300 41.3   0.2 96   3 40.3   0.8 ESE | 116 0.8   0.2 2.2   0.4 0.00 0.00 39.6   4.2 58.5   2.3
Napa River Ranch 1/20/20 2300 41.2   0.4 100   3 41.1   0.5 E | 82 1.1   0.4 2.3   0.6 0.00 0.00 40.3   3.9 56.0   0.9
Truoak 1/20/20 2300 42.2   0.6 99   2 42.1   1.1 SSE | 156 0.6   0.6 2.1   2.1 0.00 0.00 40.1   3.2 56.5   1.8
Hunter Ranch 53 1/20/20 2300 41.5   0.1 97   3 40.7   0.8 SSE | 159 0.5   0.4 1.6   0.3 0.00 0.00 39.8   2.9 56.0   1.6
Linda Vista 1/20/20 2300 41.3   0.4 97   3 40.6   0.4 E | 84 0.0   0.9 0.6   1.7 0.00 0.00 40.6   3.5 56.8   4.2
Napa River Vineyard, Ranch 29 1/20/20 2300 41.5   0.2 100   4 41.4   1.3 E | 81 0.2   0.4 1.3   0.4 0.00 0.00 41.0   4.5 56.9   3.1
Max     46.3 100 43.4 - 1.5 3.1 0.00 0.00 43.0 59.0
Avg     42.2 97 41.4 - 0.6 2.0 0.00 - - -
Min     41.2 90 40.3 - 0.0 0.6 0.00 0.00 39.6 56.0

Napa County - Southern

17 Stations

15 Minute Data | America/Los_Angeles
as of 1/20/20 11:43 PM PST
Station Date Time Temp (°F) RH (%) Dew Pt (°F) Wind Spd (mph) Wind Dir (°) Wind Gust (mph) Latest Rain (In) Daily Rain (In) Daily Min Temp (°F) Daily Max Temp (°F)
Mt. Veeder 1/20/20 2300 44.7   4.1 94   47 43.2   13.8 1.6   0.2 SSE | 161 3.9   1.3 0.00 0.00 44.3   0.4 54.7   0.8
Palmaz 300' 1/20/20 2330 43.3   1.8 100   6 43.3   3.4 0.9   1.4 ENE | 71 2.0   2.8 0.00 0.00 41.4   2.8 59.0   2.2
Palmaz 1200' 1/20/20 2330 43.5   4.2 100   44 43.5   10.5 0.3   4.1 SSW | 205 1.5   8.3 - - 40.4   3.1 57.5   3.2
Palmaz 1400' 1/20/20 2330 44.3   2.1 100   39 44.2   10.9 2.4   7.7 SSW | 210 6.4   7.4 0.00 0.00 40.5   2.5 56.2   4.1
Truchard Base 1/20/20 2330 46.4   4.3 93   3 44.5   3.5 2.3   0.2 E | 95 3.5   1.0 0.00 0.00 41.5   1.1 56.0   3.9
Truchard Remote 1/20/20 2330 39.1   2.8 98   4 38.6   1.7 - - - - - 38.2   2.6 56.1   3.2
Toyon Base (Napa South) 1/20/20 2300 44.5   1.8 95   3 43.1   2.6 1.1   0.0 NNE | 33 2.7   0.3 0.00 0.00 42.1   3.4 55.7   1.2
Toyon Remote 1 1/16/20 1600 48.2   2.5 - - - - - - - 42.8   13.4 49.8   2.0
Toyon Remote 2 1/20/20 2200 38.5   3.9 - - - - - - - 37.8   3.6 55.6   1.8
Toyon Remote 3 1/20/20 2200 40.0   1.6 - - - - - - - 39.6   3.9 56.2   1.7
Saintsbury Winery 1/20/20 2330 42.2   0.5 100   1 42.2   0.8 1.6   0.4 NNE | 15 2.6   1.3 0.00 0.00 41.8   3.9 56.0   3.5
Napa-SE 1/20/20 2300 43.6   3.4 93   1 41.9   3.0 3.3   1.5 E | 98 5.3   0.9 0.00 0.00 41.0   4.5 55.8   2.6
Suscol Mtn 1/20/20 2300 46.5   2.9 92   12 44.3   6.6 3.7   0.5 WNW | 297 5.4   2.2 0.00 0.00 40.7   1.5 53.7   2.9
Napa-SE Upper 1/20/20 2300 48.5   5.4 87   2 44.9   6.0 0.1   2.6 NNE | 19 1.3   3.9 0.00 0.00 41.1   0.0 53.8   2.8
Stanly Ranch 45 1/20/20 2300 41.5   0.7 94   0 40.0   0.7 0.7   0.0 NNE | 28 3.2   0.7 0.00 0.00 40.9   3.8 56.7   6.2
Huichica Upper 1/20/20 2300 48.8   6.9 84   10 44.1   4.0 4.7   0.1 WSW | 249 6.6   0.1 - - 41.2   2.5 55.7   5.6
Huichica-Lower 1/20/20 2300 43.4   1.3 96   3 42.4   2.0 0.2   1.7 NE | 45 1.5   3.0 0.00 0.00 41.5   3.7 55.6   5.8
Max     48.8 100 44.9 4.7 - 6.6 0.00 0.00 44.3 59.0
Avg     44.3 95 42.9 1.7 - 3.5 0.00 - - -
Min     39.1 84 38.6 0.1 - 1.3 0.00 0.00 38.2 53.7